Latest Weather Observations for Melbourne (Olympic Park)

IDV60901

Issued at 8:01 am EST Thursday 18 July 2024 (issued every 10 minutes, with the page automatically refreshed every 10 minutes)

About weather observations | Map of Melbourne area stations | Latest observations for Melbourne area | Other Formats
Station Details ID: 086338 Name: MELBOURNE (OLYMPIC PARK) Lat: -37.83 Lon: 144.98 Height: 7.53 m
Data from the previous 72 hours. | See also: Recent months at Melbourne (Olympic Park)
Date/Time
EST
Temp
°C
App
Temp
°C
Dew
Point
°C
Rel
Hum
%
Delta-T
°C
Wind Press
QNH
hPa
Press
MSL
hPa
Rain since
9am
mm
Dir  Spd
km/h
Gust
km/h
Spd
kts
Gust
kts
18/08:00am 7.4 4.7 5.5 88 0.8 WSW 9 22 5 12 1016.9 1016.9 1.0
18/07:30am 7.7 5.0 5.5 86 1.0 WSW 9 17 5 9 1016.6 1016.6 1.0
18/07:00am 7.4 4.6 5.2 86 1.0 WSW 9 15 5 8 1016.0 1016.0 1.0
18/06:30am 7.5 5.1 5.1 85 1.1 WSW 7 19 4 10 1015.8 1015.8 1.0
18/06:00am 7.7 4.9 5.3 85 1.1 WSW 9 17 5 9 1015.4 1015.4 1.0
18/05:30am 7.5 5.1 5.3 86 1.0 WSW 7 13 4 7 1015.3 1015.3 1.0
18/05:00am 8.1 5.3 5.2 82 1.3 WSW 9 20 5 11 1015.3 1015.3 1.0
18/04:30am 8.1 5.4 5.6 84 1.1 WSW 9 17 5 9 1015.1 1015.1 1.0
18/04:00am 8.4 5.4 6.0 85 1.1 W 11 17 6 9 1015.2 1015.2 1.0
18/03:30am 8.4 6.4 6.2 86 1.0 WNW 6 13 3 7 1015.1 1015.1 1.0
18/03:00am 8.4 6.3 6.7 89 0.8 W 7 13 4 7 1015.3 1015.3 1.0
18/02:30am 8.5 6.1 6.8 89 0.8 WSW 9 20 5 11 1015.4 1015.4 1.0
18/02:17am 8.4 6.4 6.9 90 0.7 WSW 7 19 4 10 1015.2 1015.2 1.0
18/02:00am 8.6 6.6 7.2 91 0.7 SW 7 15 4 8 1015.3 1015.3 1.0
18/01:30am 8.6 6.6 7.2 91 0.7 W 7 17 4 9 1015.1 1015.1 0.8
18/01:00am 8.6 6.3 7.5 93 0.5 WNW 9 17 5 9 1015.0 1015.0 0.8
18/12:30am 8.5 6.6 7.7 95 0.4 W 7 11 4 6 1015.3 1015.3 0.8
18/12:23am 8.5 6.3 7.7 95 0.4 W 9 15 5 8 1015.4 1015.4 0.8
18/12:06am 8.8 6.5 7.6 92 0.6 W 9 17 5 9 1015.3 1015.3 0.8
18/12:00am 9.0 6.7 7.5 90 0.7 W 9 15 5 8 1015.4 1015.4 0.8
 
Date/Time
EST
Temp
°C
App
Temp
°C
Dew
Point
°C
Rel
Hum
%
Delta-T
°C
Wind Press
QNH
hPa
Press
MSL
hPa
Rain since
9am
mm
Dir  Spd
km/h
Gust
km/h
Spd
kts
Gust
kts
17/11:30pm 8.9 6.7 7.8 93 0.5 W 9 17 5 9 1015.3 1015.3 0.6
17/11:00pm 9.2 7.1 8.1 93 0.5 W 9 24 5 13 1015.4 1015.4 0.6
17/10:30pm 9.9 7.2 7.5 85 1.1 WSW 11 26 6 14 1015.2 1015.2 0.6
17/10:00pm 10.5 8.6 7.6 82 1.4 WSW 7 13 4 7 1014.9 1014.9 0.6
17/09:30pm 10.2 8.7 8.3 88 0.9 W 6 13 3 7 1014.6 1014.6 0.6
17/09:00pm 10.1 8.9 9.5 96 0.3 W 6 13 3 7 1014.6 1014.6 0.6
17/08:30pm 10.4 8.7 9.9 97 0.3 SSW 9 17 5 9 1014.6 1014.6 0.6
17/08:00pm 10.2 8.1 9.9 98 0.2 S 11 20 6 11 1014.4 1014.4 0.6
17/07:36pm 9.7 6.7 9.1 96 0.3 S 15 26 8 14 1014.2 1014.2 0.6
17/07:30pm 9.7 6.2 8.9 95 0.4 S 17 32 9 17 1014.2 1014.2 0.6
17/07:00pm 10.2 7.3 9.7 97 0.3 SW 15 33 8 18 1014.1 1014.1 0.2
17/06:58pm 10.3 7.4 9.8 97 0.3 SW 15 33 8 18 1014.1 1014.1 0.2
17/06:30pm 11.0 8.9 9.9 93 0.6 SSW 11 19 6 10 1013.5 1013.5 0.0
17/06:00pm 10.9 8.6 10.4 97 0.3 SW 13 26 7 14 1013.2 1013.2 0.0
17/05:30pm 11.1 10.0 10.6 97 0.3 WSW 7 13 4 7 1012.7 1012.7 0.0
17/05:21pm 11.1 9.6 10.5 96 0.3 SW 9 15 5 8 1012.7 1012.7 0.0
17/05:02pm 11.1 8.7 10.2 94 0.5 SW 13 20 7 11 1012.6 1012.6 0.0
17/05:00pm 11.2 9.2 10.3 94 0.5 SW 11 20 6 11 1012.6 1012.6 0.0
17/04:30pm 12.1 10.5 10.2 88 1.0 SSW 9 17 5 9 1012.2 1012.2 0.0
17/04:00pm 12.3 11.1 10.2 87 1.1 SW 7 13 4 7 1012.1 1012.1 0.0
17/03:30pm 12.3 11.2 10.5 89 0.9 SW 7 15 4 8 1011.8 1011.8 0.0
17/03:00pm 12.3 9.9 9.9 85 1.2 SW 13 22 7 12 1011.6 1011.6 0.0
17/02:30pm 13.1 10.9 10.8 86 1.2 SW 13 20 7 11 1011.3 1011.3 0.0
17/02:00pm 13.6 11.9 11.1 85 1.3 SW 11 22 6 12 1011.3 1011.3 0.0
17/01:30pm 13.8 12.6 11.5 86 1.2 SW 9 19 5 10 1011.4 1011.4 0.0
17/01:00pm 13.8 13.1 11.5 86 1.2 SW 6 13 3 7 1011.5 1011.5 0.0
17/12:30pm 13.3 12.4 11.5 89 1.0 SSW 7 13 4 7 1011.8 1011.8 0.0
17/12:00pm 12.9 11.7 11.5 91 0.7 S 9 13 5 7 1012.2 1012.2 0.0
17/11:30am 12.4 12.1 11.3 93 0.6 S 4 9 2 5 1012.6 1012.6 0.0
17/11:00am 12.1 11.8 11.3 95 0.4 S 4 9 2 5 1012.9 1012.9 0.0
17/10:30am 11.6 11.2 11.1 97 0.3 SSE 4 7 2 4 1012.8 1012.8 0.0
17/10:00am 11.3 11.3 11.3 100 0.0 S 2 9 1 5 1012.6 1012.6 0.0
17/09:30am 10.8 10.7 10.8 100 0.0 SSW 2 7 1 4 1012.5 1012.5 0.0
17/09:00am 10.3 9.7 10.3 100 0.0 SW 4 9 2 5 1012.4 1012.4 0.2
17/08:30am 9.9 8.8 9.9 100 0.0 SSW 6 9 3 5 1012.0 1012.0 0.2
17/08:00am 9.5 9.4 9.5 100 0.0 CALM 0 0 0 0 1011.5 1011.5 0.2
17/07:30am 9.7 9.7 9.7 100 0.0 CALM 0 6 0 3 1011.4 1011.4 0.2
17/07:00am 10.1 9.4 10.1 100 0.0 WSW 4 11 2 6 1011.4 1011.4 0.2
17/06:30am 10.2 9.5 10.2 100 0.0 WSW 4 9 2 5 1011.3 1011.3 0.2
17/06:00am 10.1 9.4 10.1 100 0.0 WSW 4 11 2 6 1011.1 1011.1 0.2
17/05:30am 10.1 8.8 10.1 100 0.0 WSW 7 11 4 6 1010.8 1010.8 0.0
17/05:00am 9.8 8.7 9.8 100 0.0 SW 6 11 3 6 1010.7 1010.7 0.0
17/04:30am 8.8 8.2 8.8 100 0.0 SSE 2 6 1 3 1010.5 1010.5 0.0
17/04:00am 9.2 8.7 9.2 100 0.0 WNW 2 7 1 4 1010.6 1010.6 0.0
17/03:30am 9.3 8.0 9.3 100 0.0 W 6 11 3 6 1010.7 1010.7 0.0
17/03:00am 9.1 8.5 9.1 100 0.0 SW 2 7 1 4 1010.8 1010.8 0.0
17/02:30am 9.2 8.7 9.2 100 0.0 WSW 2 7 1 4 1010.5 1010.5 0.0
17/02:00am 9.7 8.5 9.7 100 0.0 SW 6 13 3 7 1010.6 1010.6 0.0
17/01:30am 9.9 9.5 9.9 100 0.0 WSW 2 9 1 5 1010.5 1010.5 0.0
17/01:00am 10.2 9.2 10.2 100 0.0 SW 6 9 3 5 1010.5 1010.5 0.0
17/12:30am 9.7 8.9 9.7 100 0.0 WSW 4 11 2 6 1010.5 1010.5 0.0
17/12:00am 9.1 8.9 9.1 100 0.0 CALM 0 0 0 0 1010.6 1010.6 0.0
 
Date/Time
EST
Temp
°C
App
Temp
°C
Dew
Point
°C
Rel
Hum
%
Delta-T
°C
Wind Press
QNH
hPa
Press
MSL
hPa
Rain since
9am
mm
Dir  Spd
km/h
Gust
km/h
Spd
kts
Gust
kts
16/11:46pm 9.3 8.8 9.3 100 0.0 SW 2 9 1 5 1010.6 1010.6 0.0
16/11:30pm 9.3 9.2 9.3 100 0.0 CALM 0 0 0 0 1010.6 1010.6 0.0
16/11:00pm 9.3 9.2 9.3 100 0.0 CALM 0 0 0 0 1010.7 1010.7 0.0
16/10:54pm 9.2 9.0 9.2 100 0.0 CALM 0 0 0 0 1010.7 1010.7 0.0
16/10:30pm 10.0 10.1 10.0 100 0.0 CALM 0 4 0 2 1010.6 1010.6 0.0
16/10:00pm 10.6 10.1 10.6 100 0.0 SW 4 7 2 4 1010.6 1010.6 0.0
16/09:30pm 10.5 10.7 10.5 100 0.0 CALM 0 0 0 0 1010.3 1010.3 0.0
16/09:00pm 11.3 11.7 11.3 100 0.0 CALM 0 6 0 3 1010.3 1010.3 0.0
16/08:30pm 11.5 10.8 11.5 100 0.0 SW 6 11 3 6 1010.0 1010.0 0.0
16/08:00pm 11.7 11.1 11.7 100 0.0 SSW 6 11 3 6 1009.8 1009.8 0.0
16/07:30pm 11.7 11.5 11.7 100 0.0 SSW 4 9 2 5 1009.6 1009.6 0.0
16/07:00pm 11.9 11.7 11.9 100 0.0 SSW 4 9 2 5 1009.2 1009.2 0.0
16/06:30pm 12.1 11.4 11.9 99 0.1 SW 7 11 4 6 1009.0 1009.0 0.0
16/06:00pm 12.3 11.1 11.5 95 0.4 SSW 9 15 5 8 1008.8 1008.8 0.0
16/05:30pm 12.5 11.3 11.6 94 0.5 SSW 9 19 5 10 1008.4 1008.4 0.0
16/05:00pm 12.7 11.7 11.1 90 0.8 SSW 7 13 4 7 1008.0 1008.0 0.0
16/04:30pm 12.9 12.5 11.1 89 0.9 SSW 4 9 2 5 1007.7 1007.7 0.0
16/04:00pm 13.0 10.9 11.2 89 1.0 SSW 13 22 7 12 1007.6 1007.6 0.0
16/03:30pm 13.0 10.8 10.9 87 1.1 SSW 13 20 7 11 1007.3 1007.3 0.0
16/03:00pm 13.0 11.7 11.1 88 1.0 SSW 9 17 5 9 1007.1 1007.1 0.0
16/02:30pm 13.1 10.9 10.8 86 1.2 SSW 13 24 7 13 1007.0 1007.0 0.0
16/02:00pm 13.2 11.5 11.1 87 1.1 S 11 19 6 10 1006.8 1006.8 0.0
16/01:30pm 13.6 12.5 11.8 89 1.0 SSW 9 19 5 10 1006.7 1006.7 0.0
16/01:00pm 13.5 12.4 11.9 90 0.9 SSW 9 19 5 10 1006.6 1006.6 0.0
16/12:30pm 13.3 11.4 11.7 90 0.9 SSW 13 22 7 12 1006.8 1006.8 0.0
16/12:00pm 13.1 11.0 12.3 95 0.4 SSW 15 24 8 13 1007.1 1007.1 0.0
16/11:30am 12.9 11.1 12.1 95 0.4 SSW 13 22 7 12 1007.2 1007.2 0.0
16/11:00am 13.0 11.6 12.1 94 0.5 SSW 11 20 6 11 1007.1 1007.1 0.0
16/10:30am 12.8 12.3 12.5 98 0.2 SW 7 13 4 7 1006.9 1006.9 0.0
16/10:00am 12.6 10.8 12.0 96 0.3 SSW 13 20 7 11 1006.6 1006.6 0.0
16/09:30am 12.5 11.0 11.9 96 0.3 SSW 11 17 6 9 1006.3 1006.3 0.0
16/09:00am 12.1 11.0 12.1 100 0.0 SSW 9 19 5 10 1005.8 1005.8 19.6
16/08:30am 11.9 10.7 11.6 98 0.2 SSW 9 17 5 9 1005.3 1005.3 19.6
16/08:00am 11.9 10.6 11.3 96 0.3 SSW 9 17 5 9 1004.9 1004.9 19.6
16/07:30am 11.9 10.3 11.4 97 0.3 SSW 11 20 6 11 1004.6 1004.6 19.6
16/07:00am 11.8 10.2 11.6 99 0.1 SSW 11 20 6 11 1004.2 1004.2 19.6
16/06:30am 11.4 10.1 11.4 100 0.0 SSW 9 15 5 8 1004.0 1004.0 19.6
16/06:00am 11.7 10.1 11.7 100 0.0 SSW 11 20 6 11 1003.6 1003.6 19.6
16/05:30am 11.8 10.3 11.8 100 0.0 SSW 11 19 6 10 1003.2 1003.2 19.6
16/05:00am 11.4 10.1 11.4 100 0.0 SSW 9 20 5 11 1002.8 1002.8 19.6
16/04:30am 11.7 10.5 11.5 99 0.1 S 9 17 5 9 1002.5 1002.5 19.6
16/04:00am 11.7 10.5 11.5 99 0.1 S 9 17 5 9 1002.2 1002.2 19.6
16/03:30am 11.9 10.4 11.9 100 0.0 SSW 11 20 6 11 1002.0 1002.0 19.6
16/03:00am 11.8 10.7 11.8 100 0.0 SSW 9 20 5 11 1001.8 1001.8 19.6
16/02:30am 11.8 9.9 11.8 100 0.0 S 13 24 7 13 1001.4 1001.4 19.6
16/02:00am 12.0 9.8 12.0 100 0.0 S 15 28 8 15 1000.9 1000.9 19.6
16/01:30am 11.0 9.6 11.0 100 0.0 SW 9 19 5 10 1000.6 1000.6 19.4
16/01:02am 10.5 8.2 10.5 100 0.0 SW 13 28 7 15 1000.5 1000.5 19.4
16/01:00am 10.3 8.3 10.3 100 0.0 SW 11 26 6 14 1000.5 1000.5 19.4
16/12:30am 9.9 7.1 9.9 100 0.0 WSW 15 35 8 19 1000.5 1000.5 18.8
16/12:00am 9.8 6.9 9.8 100 0.0 WSW 15 35 8 19 1000.3 1000.3 16.0
 
Date/Time
EST
Temp
°C
App
Temp
°C
Dew
Point
°C
Rel
Hum
%
Delta-T
°C
Wind Press
QNH
hPa
Press
MSL
hPa
Rain since
9am
mm
Dir  Spd
km/h
Gust
km/h
Spd
kts
Gust
kts
15/11:30pm 9.8 6.6 9.8 100 0.0 W 17 35 9 19 1000.6 1000.6 13.4
15/11:00pm 9.7 6.4 9.7 100 0.0 W 17 30 9 16 1000.7 1000.7 11.8
15/10:30pm 9.7 6.4 9.7 100 0.0 W 17 33 9 18 1001.3 1001.3 10.0
15/10:00pm 9.7 6.4 9.7 100 0.0 W 17 39 9 21 1001.7 1001.7 8.2
15/09:46pm 9.7 6.4 9.7 100 0.0 W 17 33 9 18 1001.7 1001.7 7.6
15/09:45pm 9.6 6.7 9.6 100 0.0 W 15 30 8 16 1001.7 1001.7 7.6
15/09:30pm 9.6 6.3 9.6 100 0.0 W 17 32 9 17 1001.9 1001.9 7.0
15/09:00pm 9.6 6.3 9.6 100 0.0 W 17 32 9 17 1002.1 1002.1 5.8
15/08:30pm 9.5 6.5 9.4 99 0.0 W 15 30 8 16 1002.4 1002.4 4.8
15/08:00pm 9.6 6.5 8.8 95 0.4 W 15 39 8 21 1002.7 1002.7 3.6
15/07:30pm 9.6 6.8 8.5 93 0.5 W 13 26 7 14 1002.6 1002.6 2.8
15/07:12pm 9.7 6.5 8.3 91 0.7 W 15 35 8 19 1002.9 1002.9 2.4
15/07:00pm 9.7 6.4 8.1 90 0.8 W 15 26 8 14 1002.9 1002.9 2.2
15/06:30pm 9.9 6.9 7.8 87 1.0 W 13 22 7 12 1003.1 1003.1 1.8
15/06:00pm 10.1 7.1 7.7 85 1.2 WNW 13 28 7 15 1003.1 1003.1 1.4
15/05:30pm 10.1 6.8 7.9 86 1.1 W 15 37 8 20 1003.2 1003.2 1.2
15/05:00pm 9.9 7.0 8.2 89 0.8 WNW 13 26 7 14 1003.5 1003.5 1.2
15/04:30pm 9.8 6.9 8.2 90 0.8 WNW 13 24 7 13 1003.7 1003.7 1.2
15/04:00pm 9.9 6.9 7.8 87 1.0 W 13 30 7 16 1003.9 1003.9 0.8
15/03:30pm 10.1 7.1 7.7 85 1.2 W 13 24 7 13 1004.0 1004.0 0.8
15/03:00pm 10.3 6.8 7.0 80 1.6 W 15 33 8 18 1004.1 1004.1 0.6
15/02:30pm 10.2 7.0 6.9 80 1.6 W 13 22 7 12 1004.3 1004.3 0.6
15/02:00pm 10.5 7.3 7.0 79 1.7 W 13 24 7 13 1004.5 1004.5 0.4
15/01:30pm 10.6 7.3 6.6 76 1.9 W 13 28 7 15 1004.9 1004.9 0.2
15/01:00pm 11.0 7.7 6.2 72 2.3 W 13 22 7 12 1005.4 1005.4 0.0
15/12:30pm 11.1 7.3 5.6 69 2.5 WSW 15 32 8 17 1005.9 1005.9 0.0
15/12:00pm 11.1 7.2 5.4 68 2.6 W 15 24 8 13 1006.5 1006.5 0.0
15/11:30am 11.0 7.5 5.5 69 2.5 W 13 24 7 13 1007.2 1007.2 0.0
15/11:00am 10.8 7.8 5.8 71 2.3 W 11 24 6 13 1007.6 1007.6 0.0
15/10:30am 10.4 7.4 6.0 74 2.0 W 11 26 6 14 1007.9 1007.9 0.0
15/10:00am 10.0 7.0 6.0 76 1.9 W 11 28 6 15 1007.9 1007.9 0.0
15/09:30am 9.5 6.9 6.0 79 1.6 WNW 9 17 5 9 1007.9 1007.9 0.0
15/09:00am 9.0 5.6 5.7 80 1.5 WNW 13 30 7 16 1007.8 1007.8 1.2
15/08:30am 8.3 5.7 5.9 85 1.1 WNW 9 19 5 10 1008.1 1008.1 1.2

Latest Capital City Observations: Canberra | Sydney | Melbourne | Brisbane | Adelaide | Perth | Hobart | Darwin

Other formats

Comma delimited format used in spreadsheet applications
http://www.bom.gov.au/fwo/IDV60901/IDV60901.95936.axf

JavaScript Object Notation format (JSON) in row-major order
http://www.bom.gov.au/fwo/IDV60901/IDV60901.95936.json

Data quality

Most of these data are generated automatically and are frequently updated. Quality checks on data are not normally performed. It is possible for incorrect values to appear. Refer to information at About Latest Weather Observations and please check the disclaimer before using these data.